White River Junction, VT (05001)

9:33 AM EST on February 09, 2016 (GMT -0500)
Wilder Village | | Change Station
CLOSE
Current Station
Personal Weather Station
Location: Wilder, VT
Elevation: 451 ft
Nearby Weather Stations

Elev 451 ft 43.68 °N, 72.31 °W | Updated 12 minutes ago

Partly Cloudy
Partly Cloudy
22.6 °F
Feels Like 23 °F
N
1.0
Wind Variable Wind from SSW
Gusts 4.0 mph

Today
High -- | Low -- °F
--% Chance of Precip.
Yesterday
High -- | Low -- °F
Precip. -- in
Pressure 29.73 in
Visibility 10.0 miles
Clouds Clear
Windchill 23 °F
Dew Point 18 °F
Humidity 81%
Rainfall 0.00 in
Snow Depth Not available.
6:56 AM 5:10 PM
New Moon, 1% visible
METAR KLEB 091353Z 00000KT 10SM CLR M07/M09 A2969 RMK AO2 SLP067 T10721089
Pressure 29.73 in
Visibility 10.0 miles
Clouds Clear
Windchill 23 °F
Dew Point 18 °F
Humidity 81%
Rainfall 0.00 in
Snow Depth Not available.
6:56 AM 5:10 PM
New Moon, 1% visible
METAR KLEB 091353Z 00000KT 10SM CLR M07/M09 A2969 RMK AO2 SLP067 T10721089

10-Day Weather Forecast

Almanac

Astronomy

Feb. 09, 2016 Rise Set
Actual Time
Civil Twilight
Nautical Twilight
Astronomical Twilight
Moon
Length of Visible Light
Length of Day
Tomorrow will be .
, % of the Moon is Illuminated

Today's Extremes

State Highs State Lows

Community

WunderPhotos

Upload Photos

1,891,606 photos uploaded!

WunderBlog® & News

Nearby

Air Quality

  Air Quality AQ Index Pollutant
Not available.

Snow Depth

Station Depth Elevation

Earthquake Activity

City Distance Mag. Time & Date
Minimum magnitude displayed is 2.5.

Coastal Water Temperatures

Place Temperature

Stations

Nearby Weather Stations

Station Location Temp. Windchill Dew Point Humidity Wind Precip. Elev Updated Type
                   

Watches & Warnings

There are currently no watches in effect.